Time;durP1;ratioP1;P1;durP2;ratioP2;P2;SDS_P1;SDS_P2;PMS_P1;PMS_P2;Temp;Humidity;BMP_temperature;BMP_pressure;BME280_temperature;BME280_humidity;BME280_pressure;Samples;Min_cycle;Max_cycle;Signal;HPM_P1;HPM_P2
2021/09/20 00:00:09;;;;;;;2.22;1.50;;;15.00;70.80;;;;;;5003462;28;20022;-63
2021/09/20 00:02:35;;;;;;;1.60;1.42;;;15.00;70.60;;;;;;4994162;28;20387;-63
2021/09/20 00:05:01;;;;;;;1.65;1.40;;;15.00;70.70;;;;;;4994443;28;20023;-63
2021/09/20 00:07:26;;;;;;;1.00;1.00;;;15.00;70.70;;;;;;4997782;28;20033;-63
2021/09/20 00:09:52;;;;;;;1.10;1.10;;;15.00;70.80;;;;;;4997882;28;20030;-63
2021/09/20 00:12:18;;;;;;;1.27;1.17;;;15.00;70.60;;;;;;4998054;28;20037;-63
2021/09/20 00:14:44;;;;;;;1.05;1.05;;;14.90;70.50;;;;;;4997529;28;20153;-63
2021/09/20 00:17:09;;;;;;;1.17;1.17;;;15.00;70.60;;;;;;5013763;28;20025;-63
2021/09/20 00:19:35;;;;;;;1.50;1.40;;;14.90;70.50;;;;;;5016898;28;20091;-63
2021/09/20 00:22:01;;;;;;;1.50;1.40;;;15.00;70.60;;;;;;5017060;28;20022;-63
2021/09/20 00:24:26;;;;;;;1.05;1.00;;;14.90;70.70;;;;;;5016910;28;20058;-63
2021/09/20 00:26:52;;;;;;;1.13;1.10;;;14.90;70.50;;;;;;5016990;28;20474;-63
2021/09/20 00:29:18;;;;;;;0.95;0.95;;;14.90;70.50;;;;;;5016894;28;20037;-63
2021/09/20 00:31:44;;;;;;;1.02;1.02;;;14.90;70.60;;;;;;5016864;28;20030;-63
2021/09/20 00:34:10;;;;;;;2.58;0.95;;;14.90;70.40;;;;;;5015651;28;20239;-63
2021/09/20 00:36:35;;;;;;;1.05;1.05;;;14.80;70.20;;;;;;5015598;28;20355;-63
2021/09/20 00:39:01;;;;;;;1.10;1.10;;;14.80;70.20;;;;;;5016805;28;20030;-63
2021/09/20 00:41:27;;;;;;;1.35;1.23;;;14.80;70.30;;;;;;5016780;28;20072;-63
2021/09/20 00:43:52;;;;;;;1.13;1.02;;;14.70;70.40;;;;;;5017015;28;20018;-63
2021/09/20 00:46:18;;;;;;;2.05;1.10;;;14.70;70.50;;;;;;5016614;28;20497;-63
2021/09/20 00:48:44;;;;;;;1.25;1.23;;;14.70;70.30;;;;;;5015608;28;20109;-63
2021/09/20 00:51:09;;;;;;;1.50;1.40;;;14.60;70.40;;;;;;5016241;28;20103;-63
2021/09/20 00:53:35;;;;;;;1.30;1.30;;;14.60;70.40;;;;;;5016714;28;20022;-63
2021/09/20 00:56:01;;;;;;;0.90;0.90;;;14.60;70.50;;;;;;5016727;28;20049;-63
2021/09/20 00:58:27;;;;;;;1.80;1.08;;;14.60;70.50;;;;;;5016481;28;20026;-63
2021/09/20 01:00:53;;;;;;;1.20;1.02;;;14.50;70.40;;;;;;5016474;28;20490;-63
2021/09/20 01:03:19;;;;;;;1.10;1.10;;;14.60;70.50;;;;;;5016399;28;20493;-63
2021/09/20 01:05:45;;;;;;;1.02;1.00;;;14.60;70.50;;;;;;5015677;28;20033;-63
2021/09/20 01:08:11;;;;;;;1.15;1.15;;;14.60;70.50;;;;;;5016223;28;20034;-63
2021/09/20 01:10:37;;;;;;;0.95;0.95;;;14.60;70.40;;;;;;5016197;28;20486;-63
2021/09/20 01:13:03;;;;;;;0.90;0.90;;;14.60;70.50;;;;;;5016198;28;20076;-63
2021/09/20 01:15:28;;;;;;;1.10;1.10;;;14.60;70.60;;;;;;5016061;28;20058;-63
2021/09/20 01:17:54;;;;;;;0.80;0.80;;;14.60;70.50;;;;;;5016253;28;20029;-63
2021/09/20 01:20:22;;;;;;;0.85;0.85;;;14.60;70.40;;;;;;5015819;28;20040;-63
2021/09/20 01:22:56;;;;;;;1.13;1.13;;;14.60;70.40;;;;;;5005329;28;20111;-63
2021/09/20 01:25:21;;;;;;;1.10;1.10;;;14.60;70.30;;;;;;4998851;28;20019;-63
2021/09/20 01:27:47;;;;;;;1.17;1.10;;;14.60;70.40;;;;;;5015847;28;20075;-63
2021/09/20 01:30:14;;;;;;;1.02;1.02;;;14.60;70.40;;;;;;5016026;28;20119;-63
2021/09/20 01:32:40;;;;;;;0.90;0.90;;;14.60;70.40;;;;;;5015699;28;20033;-63
2021/09/20 01:35:06;;;;;;;0.90;0.90;;;14.50;70.50;;;;;;5015761;28;20434;-63
2021/09/20 01:37:32;;;;;;;0.80;0.80;;;14.60;70.50;;;;;;5015240;28;20018;-63
2021/09/20 01:39:57;;;;;;;1.10;1.00;;;14.60;70.50;;;;;;5015709;28;20026;-63
2021/09/20 01:42:23;;;;;;;0.68;0.68;;;14.60;70.50;;;;;;5015647;28;20084;-63
2021/09/20 01:44:48;;;;;;;0.98;0.98;;;14.60;70.50;;;;;;5015520;28;20398;-63
2021/09/20 01:47:14;;;;;;;2.95;1.02;;;14.60;70.40;;;;;;5015792;28;20377;-63
2021/09/20 01:49:40;;;;;;;1.25;1.15;;;14.60;70.50;;;;;;5015048;28;20609;-63
2021/09/20 01:52:06;;;;;;;0.90;0.90;;;14.60;70.40;;;;;;5014947;28;20026;-63
2021/09/20 01:54:32;;;;;;;1.02;1.02;;;14.60;70.40;;;;;;5014465;28;20029;-63
2021/09/20 01:56:58;;;;;;;0.90;0.90;;;14.60;70.30;;;;;;5015277;28;20084;-63
2021/09/20 01:59:23;;;;;;;0.95;0.95;;;14.60;70.30;;;;;;5015342;28;20022;-63
2021/09/20 02:01:49;;;;;;;0.90;0.90;;;14.60;70.20;;;;;;5015239;28;20037;-63
2021/09/20 02:04:15;;;;;;;1.38;1.15;;;14.60;70.10;;;;;;5015420;28;20022;-63
2021/09/20 02:06:40;;;;;;;0.98;0.98;;;14.60;70.10;;;;;;5015087;28;20160;-63
2021/09/20 02:09:09;;;;;;;1.23;1.20;;;14.60;70.10;;;;;;5003176;28;20088;-63
2021/09/20 02:11:35;;;;;;;0.90;0.90;;;14.60;70.10;;;;;;4995866;28;20113;-63
2021/09/20 02:14:01;;;;;;;1.02;1.00;;;14.60;70.00;;;;;;4995386;28;20510;-63
2021/09/20 02:16:26;;;;;;;1.00;1.00;;;14.60;70.00;;;;;;4995369;28;20047;-63
2021/09/20 02:18:52;;;;;;;0.90;0.90;;;14.60;70.00;;;;;;4995373;28;20105;-63
2021/09/20 02:21:17;;;;;;;0.80;0.80;;;14.60;69.90;;;;;;5013140;28;20124;-63
2021/09/20 02:23:43;;;;;;;1.15;1.00;;;14.60;69.90;;;;;;5014747;28;20046;-63
2021/09/20 02:26:09;;;;;;;1.30;1.20;;;14.60;70.00;;;;;;5014225;28;20030;-63
2021/09/20 02:28:37;;;;;;;0.95;0.93;;;14.60;69.90;;;;;;5014517;28;20485;-63
2021/09/20 02:31:04;;;;;;;0.85;0.85;;;14.50;70.00;;;;;;5014924;28;20462;-63
2021/09/20 02:33:30;;;;;;;1.00;0.90;;;14.50;70.00;;;;;;5014893;28;20030;-63
2021/09/20 02:35:56;;;;;;;1.00;1.00;;;14.50;70.00;;;;;;5014698;28;20026;-63
2021/09/20 02:38:21;;;;;;;1.00;1.00;;;14.50;69.90;;;;;;5014607;28;20390;-63
2021/09/20 02:40:47;;;;;;;0.90;0.90;;;14.50;69.90;;;;;;5011874;28;20033;-63
2021/09/20 02:43:13;;;;;;;1.27;1.05;;;14.50;70.10;;;;;;4994865;28;20026;-63
2021/09/20 02:45:38;;;;;;;1.40;1.02;;;14.50;70.10;;;;;;4994844;28;20080;-63
2021/09/20 02:48:04;;;;;;;1.42;1.00;;;14.40;70.10;;;;;;4994784;28;20076;-63
2021/09/20 02:50:30;;;;;;;0.90;0.90;;;14.40;70.10;;;;;;5006064;28;20486;-63
2021/09/20 02:52:56;;;;;;;1.25;1.15;;;14.40;70.20;;;;;;5014374;28;20022;-63
2021/09/20 02:55:21;;;;;;;1.20;1.13;;;14.40;70.20;;;;;;5014250;28;20057;-63
2021/09/20 02:57:47;;;;;;;2.30;1.40;;;14.40;70.20;;;;;;5001076;28;20050;-63
2021/09/20 03:00:13;;;;;;;1.30;1.20;;;14.40;70.30;;;;;;4994589;28;20023;-63
2021/09/20 03:02:39;;;;;;;1.33;1.23;;;14.40;70.10;;;;;;4994876;28;20030;-63
2021/09/20 03:05:06;;;;;;;1.63;1.52;;;14.40;70.10;;;;;;4994512;28;20033;-63
2021/09/20 03:07:31;;;;;;;1.15;1.15;;;14.40;70.10;;;;;;4994439;28;20037;-63
2021/09/20 03:09:57;;;;;;;1.15;1.10;;;14.30;70.00;;;;;;4994591;28;20392;-63
2021/09/20 03:12:23;;;;;;;1.13;1.13;;;14.30;70.00;;;;;;4994333;28;20022;-63
2021/09/20 03:14:49;;;;;;;1.23;1.10;;;14.30;70.10;;;;;;5009013;28;20117;-63
2021/09/20 03:17:14;;;;;;;1.02;1.02;;;14.30;70.20;;;;;;5014090;28;20064;-63
2021/09/20 03:19:40;;;;;;;0.90;0.90;;;14.30;70.20;;;;;;5013878;28;20570;-63
2021/09/20 03:22:06;;;;;;;1.00;1.00;;;14.30;70.30;;;;;;5013862;28;20100;-63
2021/09/20 03:24:32;;;;;;;0.95;0.95;;;14.30;70.50;;;;;;5013775;28;20041;-63
2021/09/20 03:26:58;;;;;;;0.90;0.90;;;14.30;70.50;;;;;;5013670;28;20026;-63
2021/09/20 03:29:24;;;;;;;1.10;1.10;;;14.30;70.50;;;;;;5012806;28;20075;-63
2021/09/20 03:31:50;;;;;;;0.95;0.95;;;14.30;70.70;;;;;;5013667;28;20037;-63
2021/09/20 03:34:15;;;;;;;0.90;0.90;;;14.30;70.50;;;;;;5013887;28;20026;-63
2021/09/20 03:36:41;;;;;;;1.33;1.23;;;14.30;70.60;;;;;;5013763;28;20466;-63
2021/09/20 03:39:07;;;;;;;0.98;0.98;;;14.30;70.70;;;;;;5013575;28;20502;-63
2021/09/20 03:41:33;;;;;;;1.38;1.27;;;14.30;70.80;;;;;;5013101;28;20466;-63
2021/09/20 03:43:59;;;;;;;1.30;1.00;;;14.30;70.80;;;;;;5013457;28;20029;-63
2021/09/20 03:46:25;;;;;;;1.00;1.00;;;14.30;70.70;;;;;;5012476;28;20030;-63
2021/09/20 03:48:51;;;;;;;1.23;1.15;;;14.40;70.70;;;;;;5013227;28;20386;-63
2021/09/20 03:51:17;;;;;;;1.10;1.10;;;14.40;70.80;;;;;;5013683;28;20026;-63
2021/09/20 03:53:42;;;;;;;0.95;0.90;;;14.40;70.80;;;;;;5013380;28;20414;-63
2021/09/20 03:56:08;;;;;;;1.17;1.17;;;14.40;70.80;;;;;;5013663;28;20458;-63
2021/09/20 03:58:35;;;;;;;1.17;1.15;;;14.40;70.80;;;;;;5013338;28;20025;-63
2021/09/20 04:01:01;;;;;;;1.35;1.25;;;14.40;70.70;;;;;;5010095;28;20470;-63
2021/09/20 04:03:27;;;;;;;1.02;0.93;;;14.40;70.70;;;;;;4993709;28;20049;-63
2021/09/20 04:05:52;;;;;;;1.27;1.17;;;14.40;70.70;;;;;;4993609;28;20050;-63
2021/09/20 04:08:18;;;;;;;1.00;1.00;;;14.50;70.80;;;;;;5010912;28;20029;-63
2021/09/20 04:10:44;;;;;;;1.23;1.13;;;14.50;70.90;;;;;;5032041;28;20028;-63
2021/09/20 04:13:10;;;;;;;1.20;1.20;;;14.50;70.90;;;;;;5032864;28;20469;-63
2021/09/20 04:15:38;;;;;;;1.40;1.30;;;14.50;70.90;;;;;;5033237;28;20416;-63
2021/09/20 04:18:05;;;;;;;1.70;1.60;;;14.50;70.80;;;;;;5025659;28;20030;-63
2021/09/20 04:20:31;;;;;;;2.47;1.50;;;14.50;70.90;;;;;;5012948;28;20030;-63
2021/09/20 04:22:57;;;;;;;1.13;1.13;;;14.50;71.00;;;;;;5013028;28;20044;-63
2021/09/20 04:25:22;;;;;;;1.33;1.23;;;14.50;71.00;;;;;;5013090;28;21396;-65
2021/09/20 04:27:48;;;;;;;1.85;1.48;;;14.50;70.90;;;;;;5013150;28;20029;-63
2021/09/20 04:30:14;;;;;;;1.40;1.30;;;14.60;70.80;;;;;;5012990;28;20026;-63
2021/09/20 04:32:40;;;;;;;2.05;1.25;;;14.60;70.80;;;;;;5012922;28;20029;-63
2021/09/20 04:35:06;;;;;;;2.05;1.70;;;14.60;70.90;;;;;;5011990;28;20034;-63
2021/09/20 04:37:31;;;;;;;1.58;1.40;;;14.60;70.80;;;;;;5012981;28;20034;-63
2021/09/20 04:39:57;;;;;;;1.70;1.60;;;14.60;70.90;;;;;;5013045;28;20018;-63
2021/09/20 04:42:23;;;;;;;2.60;1.70;;;14.60;70.90;;;;;;5013275;28;20513;-63
2021/09/20 04:44:48;;;;;;;2.55;1.67;;;14.70;70.80;;;;;;5011886;28;20026;-63
2021/09/20 04:47:14;;;;;;;1.85;1.70;;;14.70;70.80;;;;;;5012914;28;20088;-63
2021/09/20 04:49:40;;;;;;;2.50;1.80;;;14.70;70.80;;;;;;5012542;28;20110;-63
2021/09/20 04:52:06;;;;;;;2.67;1.67;;;14.70;70.70;;;;;;5001227;28;20030;-63
2021/09/20 04:54:31;;;;;;;1.75;1.60;;;14.70;70.60;;;;;;4997118;28;20027;-63
2021/09/20 04:56:57;;;;;;;1.70;1.60;;;14.70;70.50;;;;;;4996874;28;20064;-63
2021/09/20 04:59:23;;;;;;;1.42;1.33;;;14.70;70.70;;;;;;5006607;28;20359;-63
2021/09/20 05:01:48;;;;;;;2.38;1.48;;;14.70;70.60;;;;;;5016023;28;20030;-63
2021/09/20 05:04:14;;;;;;;1.20;1.20;;;14.70;70.50;;;;;;5010137;28;20048;-63
2021/09/20 05:06:40;;;;;;;1.05;1.05;;;14.70;70.40;;;;;;5008157;28;20093;-63
2021/09/20 05:09:07;;;;;;;1.17;1.15;;;14.70;70.50;;;;;;5005421;28;20030;-63
2021/09/20 05:11:33;;;;;;;2.03;1.40;;;14.80;70.50;;;;;;5016173;28;20462;-63
2021/09/20 05:13:59;;;;;;;1.40;1.38;;;14.80;70.50;;;;;;5016557;28;20041;-63
2021/09/20 05:16:25;;;;;;;1.40;1.30;;;14.80;70.40;;;;;;5015951;28;20030;-64
2021/09/20 05:18:50;;;;;;;1.50;1.40;;;14.80;70.40;;;;;;5015777;28;20121;-63
2021/09/20 05:21:16;;;;;;;1.00;1.00;;;14.90;70.60;;;;;;5014499;28;20025;-63
2021/09/20 05:23:44;;;;;;;2.20;1.40;;;14.90;70.20;;;;;;5014676;28;20045;-63
2021/09/20 05:26:11;;;;;;;1.58;1.27;;;15.00;70.20;;;;;;5014922;28;20072;-63
2021/09/20 05:28:36;;;;;;;1.05;1.05;;;15.00;70.00;;;;;;5007865;28;20021;-63
2021/09/20 05:31:02;;;;;;;1.00;0.98;;;15.00;69.80;;;;;;5004354;28;20470;-64
2021/09/20 05:33:33;;;;;;;0.90;0.90;;;15.00;69.70;;;;;;5004479;28;20727;-63
2021/09/20 05:35:59;;;;;;;1.08;1.08;;;15.10;70.00;;;;;;5011403;28;20061;-63
2021/09/20 05:38:24;;;;;;;1.15;1.15;;;15.10;69.80;;;;;;5013617;28;20489;-51
2021/09/20 05:40:50;;;;;;;1.30;1.20;;;15.20;69.70;;;;;;5012430;28;20025;-52
2021/09/20 05:43:16;;;;;;;1.52;1.42;;;15.20;69.30;;;;;;5013928;28;20022;-53
2021/09/20 05:45:41;;;;;;;1.73;1.63;;;15.20;69.30;;;;;;5012939;28;20049;-52
2021/09/20 05:48:07;;;;;;;2.05;1.92;;;15.10;69.20;;;;;;5014491;28;20022;-50
2021/09/20 05:50:33;;;;;;;1.05;1.05;;;15.10;69.30;;;;;;5013901;28;20029;-49
2021/09/20 05:52:59;;;;;;;1.20;1.10;;;15.10;69.20;;;;;;5002566;28;20021;-51
2021/09/20 05:55:25;;;;;;;1.13;1.00;;;15.10;69.10;;;;;;5008992;28;20026;-49
2021/09/20 05:57:51;;;;;;;0.85;0.80;;;15.10;69.10;;;;;;5009197;28;20026;-48
2021/09/20 06:00:16;;;;;;;1.23;0.70;;;15.00;69.00;;;;;;5014070;28;20041;-48
2021/09/20 06:02:42;;;;;;;1.25;1.20;;;15.00;69.10;;;;;;5013715;28;20021;-50
2021/09/20 06:05:09;;;;;;;0.90;0.90;;;15.00;69.10;;;;;;5011853;28;20033;-52
2021/09/20 06:07:35;;;;;;;1.00;1.00;;;15.00;69.10;;;;;;5012005;28;20069;-51
2021/09/20 06:10:01;;;;;;;0.80;0.80;;;15.00;69.20;;;;;;5022000;28;20079;-52
2021/09/20 06:12:27;;;;;;;1.00;0.90;;;15.00;69.40;;;;;;5011052;28;20025;-54
2021/09/20 06:14:54;;;;;;;1.83;1.00;;;15.00;69.50;;;;;;5009593;28;20540;-55
2021/09/20 06:17:19;;;;;;;1.27;1.17;;;15.00;69.40;;;;;;5009961;28;20140;-55
2021/09/20 06:19:46;;;;;;;1.35;1.23;;;15.10;69.50;;;;;;5005789;28;20120;-51
2021/09/20 06:22:13;;;;;;;1.90;1.20;;;15.10;69.40;;;;;;5006124;28;20022;-54
2021/09/20 06:24:38;;;;;;;1.30;1.25;;;15.10;69.30;;;;;;5011841;28;20060;-54
2021/09/20 06:27:04;;;;;;;0.80;0.80;;;15.10;69.10;;;;;;5002309;28;20037;-53
2021/09/20 06:29:30;;;;;;;0.98;0.93;;;15.20;69.20;;;;;;5008568;28;20835;-52
2021/09/20 06:31:57;;;;;;;0.60;0.60;;;15.20;69.20;;;;;;5005885;28;20482;-55
2021/09/20 06:34:23;;;;;;;1.20;1.13;;;15.20;69.20;;;;;;5001530;28;20038;-54
2021/09/20 06:36:48;;;;;;;0.90;0.90;;;15.30;69.00;;;;;;5006056;28;20018;-53
2021/09/20 06:39:14;;;;;;;1.10;1.00;;;15.30;69.00;;;;;;4997442;28;20054;-54
2021/09/20 06:41:40;;;;;;;1.27;1.17;;;15.30;69.50;;;;;;4998054;28;20477;-52
2021/09/20 06:44:05;;;;;;;0.98;0.98;;;15.30;68.90;;;;;;4997353;28;20045;-53
2021/09/20 06:46:33;;;;;;;0.80;0.80;;;15.40;68.80;;;;;;4992826;28;20098;-53
2021/09/20 06:48:59;;;;;;;1.00;1.00;;;15.40;68.90;;;;;;4991400;28;20091;-49
2021/09/20 06:51:25;;;;;;;1.65;0.98;;;15.40;68.60;;;;;;5000904;28;20033;-54
2021/09/20 06:53:51;;;;;;;1.00;1.00;;;15.40;68.60;;;;;;5002541;28;20048;-54
2021/09/20 06:56:17;;;;;;;0.80;0.80;;;15.40;68.70;;;;;;4999991;28;20030;-50
2021/09/20 06:58:43;;;;;;;1.05;1.05;;;15.40;68.60;;;;;;4996114;28;20030;-56
2021/09/20 07:01:09;;;;;;;1.00;0.90;;;15.40;68.60;;;;;;4989246;28;20089;-55
2021/09/20 07:03:34;;;;;;;1.75;0.98;;;15.40;68.50;;;;;;4990309;28;20026;-53
2021/09/20 07:06:00;;;;;;;0.80;0.80;;;15.50;68.50;;;;;;4994298;28;20044;-53
2021/09/20 07:08:26;;;;;;;0.80;0.80;;;15.50;68.50;;;;;;4984933;28;20132;-54
2021/09/20 07:10:52;;;;;;;0.80;0.80;;;15.60;68.40;;;;;;4991288;28;20064;-54
2021/09/20 07:13:18;;;;;;;1.23;1.10;;;15.60;68.30;;;;;;4989462;28;20033;-54
2021/09/20 07:15:44;;;;;;;0.80;0.80;;;15.60;68.20;;;;;;4989903;28;20074;-54
2021/09/20 07:18:09;;;;;;;0.90;0.90;;;15.70;68.10;;;;;;4991340;28;20042;-54
2021/09/20 07:20:35;;;;;;;0.70;0.70;;;15.70;68.00;;;;;;4994085;28;20034;-55
2021/09/20 07:23:01;;;;;;;1.98;1.05;;;15.80;68.10;;;;;;4991583;28;20050;-54
2021/09/20 07:25:27;;;;;;;0.80;0.70;;;15.80;67.90;;;;;;4996292;28;20125;-54
2021/09/20 07:27:52;;;;;;;0.68;0.68;;;15.80;67.80;;;;;;4993537;28;20047;-57
2021/09/20 07:30:18;;;;;;;0.88;0.82;;;15.90;67.90;;;;;;4998939;28;20148;-55
2021/09/20 07:32:47;;;;;;;0.90;0.90;;;15.90;67.50;;;;;;4992245;28;20643;-53
2021/09/20 07:35:15;;;;;;;1.83;0.93;;;16.00;67.60;;;;;;4994223;28;20073;-56
2021/09/20 07:37:46;;;;;;;1.50;1.10;;;16.00;67.50;;;;;;4992115;28;20378;-56
2021/09/20 07:40:12;;;;;;;1.13;1.02;;;16.00;68.10;;;;;;4993243;28;20034;-55
2021/09/20 07:42:38;;;;;;;1.20;1.10;;;16.10;67.50;;;;;;4991768;28;20063;-56
2021/09/20 07:45:05;;;;;;;0.88;0.88;;;16.10;67.30;;;;;;4990147;28;20033;-56
2021/09/20 07:47:30;;;;;;;0.82;0.82;;;16.20;67.20;;;;;;4992832;28;20037;-56
2021/09/20 07:49:56;;;;;;;1.15;0.80;;;16.20;67.10;;;;;;4989096;28;20052;-56
2021/09/20 07:52:22;;;;;;;0.90;0.90;;;16.20;67.00;;;;;;4991836;28;20153;-56
2021/09/20 07:54:47;;;;;;;1.17;1.15;;;16.30;67.00;;;;;;4985638;28;20037;-54
2021/09/20 07:57:13;;;;;;;0.80;0.80;;;16.30;66.80;;;;;;4986862;28;20031;-55
2021/09/20 07:59:38;;;;;;;1.10;1.00;;;16.40;66.60;;;;;;4984104;28;20041;-56
2021/09/20 08:02:04;;;;;;;0.70;0.70;;;16.40;66.60;;;;;;4992822;28;20461;-55
2021/09/20 08:04:30;;;;;;;1.15;1.05;;;16.50;66.50;;;;;;4996216;28;20084;-55
2021/09/20 08:06:55;;;;;;;0.93;0.93;;;16.50;66.50;;;;;;4988278;28;20037;-54
2021/09/20 08:09:21;;;;;;;0.80;0.80;;;16.50;66.30;;;;;;4991453;28;20034;-55
2021/09/20 08:11:47;;;;;;;0.90;0.80;;;16.60;66.40;;;;;;4993010;28;20743;-53
2021/09/20 08:14:12;;;;;;;0.77;0.77;;;16.60;66.30;;;;;;4982365;28;20034;-54
2021/09/20 08:16:38;;;;;;;0.90;0.90;;;16.70;66.20;;;;;;4989521;28;20752;-55
2021/09/20 08:19:04;;;;;;;0.82;0.60;;;16.70;66.00;;;;;;4995268;28;20121;-54
2021/09/20 08:21:30;;;;;;;1.15;1.05;;;16.70;65.90;;;;;;4994816;28;20474;-54
2021/09/20 08:23:55;;;;;;;1.70;1.23;;;16.80;65.90;;;;;;4998744;28;20049;-54
2021/09/20 08:26:21;;;;;;;1.30;1.20;;;16.80;65.70;;;;;;4998064;28;20116;-54
2021/09/20 08:28:47;;;;;;;0.68;0.68;;;16.80;65.60;;;;;;4998491;28;20040;-51
2021/09/20 08:31:12;;;;;;;1.00;0.93;;;16.80;65.60;;;;;;5003125;28;20044;-55
2021/09/20 08:33:38;;;;;;;0.98;0.90;;;16.80;65.60;;;;;;4997458;28;20526;-55
2021/09/20 08:36:04;;;;;;;0.80;0.80;;;16.90;65.50;;;;;;5000186;28;20026;-54
2021/09/20 08:38:29;;;;;;;1.13;1.02;;;16.90;65.30;;;;;;4993298;28;20041;-55
2021/09/20 08:40:56;;;;;;;1.20;1.10;;;16.90;65.30;;;;;;4999363;28;20061;-56
2021/09/20 08:43:22;;;;;;;2.33;1.30;;;16.90;65.20;;;;;;4995174;28;20029;-56
2021/09/20 08:45:48;;;;;;;0.98;0.98;;;16.90;65.40;;;;;;4995379;28;20044;-55
2021/09/20 08:48:14;;;;;;;1.10;1.02;;;16.90;65.30;;;;;;4999258;28;20049;-56
2021/09/20 08:50:40;;;;;;;1.20;1.10;;;16.90;65.20;;;;;;4999675;28;20037;-51
2021/09/20 08:53:08;;;;;;;1.10;1.10;;;16.90;65.00;;;;;;5003245;28;20038;-51
2021/09/20 08:55:35;;;;;;;0.90;0.90;;;16.90;65.10;;;;;;4999885;28;20447;-54
2021/09/20 08:58:02;;;;;;;1.20;1.10;;;17.00;64.90;;;;;;4997057;28;20466;-55
2021/09/20 09:00:28;;;;;;;1.30;1.20;;;16.90;64.80;;;;;;4997145;28;20057;-55
2021/09/20 09:02:53;;;;;;;1.05;0.90;;;16.90;64.80;;;;;;4995042;28;20173;-55
2021/09/20 09:05:25;;;;;;;1.75;1.23;;;16.90;64.90;;;;;;4996634;28;20379;-53
2021/09/20 09:07:56;;;;;;;0.95;0.95;;;17.00;65.00;;;;;;4991120;28;20053;-57
2021/09/20 09:10:23;;;;;;;1.23;1.08;;;16.90;65.00;;;;;;5000696;28;20661;-56
2021/09/20 09:12:50;;;;;;;1.40;0.90;;;16.90;64.80;;;;;;4994981;28;20851;-55
2021/09/20 09:15:17;;;;;;;1.25;1.20;;;16.90;64.70;;;;;;4990930;28;20045;-55
2021/09/20 09:17:46;;;;;;;1.27;1.27;;;17.00;64.90;;;;;;5023332;28;20026;-55
2021/09/20 09:20:18;;;;;;;1.52;1.20;;;17.00;64.70;;;;;;4994209;28;20033;-56
2021/09/20 09:22:49;;;;;;;1.13;1.02;;;17.00;64.70;;;;;;4991540;28;20037;-57
2021/09/20 09:25:18;;;;;;;1.00;1.00;;;17.00;64.70;;;;;;4998527;28;20084;-55
2021/09/20 09:27:45;;;;;;;1.05;1.00;;;16.90;64.60;;;;;;4996439;28;20486;-51
2021/09/20 09:30:18;;;;;;;1.88;1.20;;;17.00;64.80;;;;;;4997166;28;20026;-57
2021/09/20 09:32:46;;;;;;;0.80;0.80;;;17.00;64.70;;;;;;4999333;28;20022;-56
2021/09/20 09:35:14;;;;;;;0.90;0.90;;;17.00;64.60;;;;;;5003600;28;20139;-56
2021/09/20 09:37:44;;;;;;;1.33;1.23;;;17.00;64.50;;;;;;5000405;28;20504;-55
2021/09/20 09:40:10;;;;;;;1.50;1.40;;;17.00;64.30;;;;;;5003674;28;20065;-56
2021/09/20 09:42:37;;;;;;;1.10;1.10;;;17.00;64.40;;;;;;5008341;28;20433;-51
2021/09/20 09:45:29;;;;;;;1.13;1.13;;;17.00;64.30;;;;;;5004596;28;20030;-55
2021/09/20 09:48:10;;;;;;;1.48;1.38;;;17.00;64.30;;;;;;5004842;28;20433;-54
2021/09/20 09:50:47;;;;;;;0.98;0.98;;;17.00;64.50;;;;;;5004222;28;20026;-55
2021/09/20 09:53:36;;;;;;;1.20;1.10;;;17.00;64.60;;;;;;5004174;28;20632;-54
2021/09/20 09:56:25;;;;;;;1.65;1.17;;;17.00;64.30;;;;;;5001313;28;20038;-53
2021/09/20 09:59:05;;;;;;;1.25;1.02;;;17.00;64.30;;;;;;4998928;28;20053;-54
2021/09/20 10:01:39;;;;;;;1.10;1.00;;;17.10;64.50;;;;;;4999260;28;20041;-53
2021/09/20 10:04:20;;;;;;;1.10;0.93;;;17.10;64.50;;;;;;5000361;28;20030;-51
2021/09/20 10:06:50;;;;;;;0.70;0.70;;;17.10;64.30;;;;;;5003963;28;20033;-51
2021/09/20 10:09:18;;;;;;;1.10;1.10;;;17.10;64.40;;;;;;4994521;28;20046;-54
2021/09/20 10:11:47;;;;;;;1.10;1.00;;;17.10;64.20;;;;;;4992950;28;20021;-54
2021/09/20 10:14:14;;;;;;;1.40;1.33;;;17.20;64.20;;;;;;4999662;28;20036;-54
2021/09/20 10:16:40;;;;;;;1.35;1.00;;;17.20;64.10;;;;;;5005906;28;20037;-50
2021/09/20 10:19:06;;;;;;;1.25;1.15;;;17.20;64.20;;;;;;5000601;28;20037;-53
2021/09/20 10:21:32;;;;;;;1.38;1.30;;;17.20;63.90;;;;;;4996683;28;20030;-53
2021/09/20 10:24:00;;;;;;;1.10;0.85;;;17.20;64.00;;;;;;4997332;28;20049;-50
2021/09/20 10:26:27;;;;;;;0.93;0.93;;;17.30;64.00;;;;;;5001347;28;20038;-54
2021/09/20 10:28:55;;;;;;;0.82;0.82;;;17.30;63.90;;;;;;5004261;28;20049;-54
2021/09/20 10:31:23;;;;;;;1.15;1.02;;;17.30;63.80;;;;;;5001151;28;20040;-53
2021/09/20 10:33:49;;;;;;;1.00;1.00;;;17.30;63.80;;;;;;4998498;28;20099;-55
2021/09/20 10:36:14;;;;;;;0.90;0.90;;;17.40;63.60;;;;;;4997009;28;20026;-50
2021/09/20 10:38:50;;;;;;;1.20;1.10;;;17.30;63.50;;;;;;4995343;28;20037;-54
2021/09/20 10:41:22;;;;;;;1.30;1.20;;;17.40;63.50;;;;;;5000827;28;20021;-54
2021/09/20 10:44:00;;;;;;;1.10;1.00;;;17.40;63.50;;;;;;5000949;28;20398;-51
2021/09/20 10:46:32;;;;;;;1.40;1.30;;;17.40;63.50;;;;;;4999423;28;20474;-51
2021/09/20 10:49:01;;;;;;;1.40;1.25;;;17.40;63.60;;;;;;5004895;28;20120;-51
2021/09/20 10:51:30;;;;;;;0.77;0.77;;;17.50;63.70;;;;;;4998544;28;20061;-52
2021/09/20 10:54:15;;;;;;;0.93;0.93;;;17.50;63.40;;;;;;4999602;28;20088;-54
2021/09/20 10:56:42;;;;;;;1.17;1.17;;;17.60;63.20;;;;;;4996783;28;20029;-54
2021/09/20 10:59:10;;;;;;;0.73;0.73;;;17.50;63.10;;;;;;4997771;28;20033;-50
2021/09/20 11:01:38;;;;;;;0.80;0.80;;;17.50;63.30;;;;;;4999401;28;20018;-54
2021/09/20 11:04:15;;;;;;;1.27;1.20;;;17.50;63.30;;;;;;4999824;28;20119;-54
2021/09/20 11:06:43;;;;;;;1.35;1.20;;;17.60;63.30;;;;;;4999592;28;20497;-54
2021/09/20 11:09:09;;;;;;;0.70;0.70;;;17.60;63.10;;;;;;5001607;28;20085;-57
2021/09/20 11:11:47;;;;;;;1.30;1.20;;;17.60;63.10;;;;;;5000994;28;22570;-54
2021/09/20 11:14:21;;;;;;;1.02;1.02;;;17.70;63.00;;;;;;4996711;28;20038;-55
2021/09/20 11:16:57;;;;;;;1.23;1.10;;;17.70;63.10;;;;;;5000561;28;20072;-55
2021/09/20 11:24:35;;;;;;;1.40;1.20;;;17.80;63.00;;;;;;4997628;28;20053;-56
2021/09/20 11:27:01;;;;;;;;;;;17.90;63.00;;;;;;4989139;28;20148;-56
2021/09/20 11:29:28;;;;;;;1.27;1.20;;;17.90;62.80;;;;;;4996167;28;19924;-55
2021/09/20 11:31:54;;;;;;;1.10;1.10;;;17.90;62.80;;;;;;4985905;28;20553;-57
2021/09/20 11:34:38;;;;;;;1.40;1.30;;;17.90;62.50;;;;;;4991299;28;20030;-56
2021/09/20 11:37:12;;;;;;;1.70;1.60;;;17.90;62.50;;;;;;4998660;28;20110;-56
2021/09/20 11:39:48;;;;;;;2.03;1.77;;;17.80;62.60;;;;;;4993412;28;20033;-56
2021/09/20 11:42:15;;;;;;;1.40;1.30;;;17.70;62.60;;;;;;4993338;28;20030;-56
2021/09/20 11:44:54;;;;;;;1.35;1.25;;;17.70;62.70;;;;;;5000774;28;20044;-56
2021/09/20 11:47:22;;;;;;;1.42;1.33;;;17.60;63.00;;;;;;4993785;28;20145;-56
2021/09/20 11:49:50;;;;;;;1.33;1.23;;;17.50;63.30;;;;;;4993675;28;20517;-55
2021/09/20 11:52:38;;;;;;;1.65;1.33;;;17.50;63.50;;;;;;4996447;28;20045;-53
2021/09/20 11:55:24;;;;;;;2.00;1.50;;;17.50;63.70;;;;;;4995230;28;20033;-55
2021/09/20 11:57:53;;;;;;;1.20;1.10;;;17.40;63.60;;;;;;5002551;28;20141;-55
2021/09/20 12:00:21;;;;;;;2.83;1.00;;;17.40;63.70;;;;;;4997164;28;20042;-53
2021/09/20 12:02:49;;;;;;;1.95;1.75;;;17.40;63.60;;;;;;4995338;28;20041;-53
2021/09/20 12:05:17;;;;;;;1.38;1.38;;;17.40;63.70;;;;;;5001009;28;20104;-54
2021/09/20 12:07:50;;;;;;;1.45;1.35;;;17.30;63.80;;;;;;4999111;28;20525;-51
2021/09/20 12:10:18;;;;;;;2.35;1.70;;;17.30;63.90;;;;;;4988931;28;20038;-56
2021/09/20 12:12:48;;;;;;;2.03;1.90;;;17.30;64.10;;;;;;4997642;28;20123;-56
2021/09/20 12:15:15;;;;;;;1.95;1.85;;;17.20;64.10;;;;;;4997038;28;20355;-54
2021/09/20 12:17:48;;;;;;;1.60;1.50;;;17.20;64.30;;;;;;5008440;23;20041;-84
2021/09/20 12:20:15;;;;;;;1.70;1.60;;;17.20;64.30;;;;;;4995696;28;20033;-84
2021/09/20 12:22:44;;;;;;;2.65;2.00;;;17.20;64.40;;;;;;4998650;28;20026;-86
2021/09/20 12:25:29;;;;;;;2.40;1.73;;;17.20;64.40;;;;;;4979967;28;20037;-86
2021/09/20 12:28:23;;;;;;;1.92;1.83;;;17.20;64.50;;;;;;4983675;28;20026;-87
2021/09/20 12:31:27;;;;;;;1.70;1.60;;;17.20;64.40;;;;;;4989240;28;21029;-86
2021/09/20 12:40:35;;;;;;;2.22;1.98;;;17.30;64.80;;;;;;4999366;28;20053;-53
2021/09/20 12:43:15;;;;;;;2.50;2.13;;;17.30;64.70;;;;;;4960764;28;20045;-56
2021/09/20 12:45:44;;;;;;;1.92;1.83;;;17.30;64.50;;;;;;4994857;28;20068;-53
2021/09/20 12:48:12;;;;;;;1.25;1.20;;;17.30;64.50;;;;;;4996807;28;20038;-54
2021/09/20 12:50:41;;;;;;;1.90;1.52;;;17.30;64.70;;;;;;4992994;28;20072;-53
2021/09/20 12:53:07;;;;;;;1.10;1.08;;;17.30;64.70;;;;;;4973938;28;20139;-51
2021/09/20 12:55:39;;;;;;;1.60;1.50;;;17.30;64.50;;;;;;4999343;28;20692;-55
2021/09/20 12:58:27;;;;;;;2.35;1.45;;;17.30;64.50;;;;;;4992572;28;20037;-53
2021/09/20 13:00:57;;;;;;;1.50;1.40;;;17.20;64.50;;;;;;5001067;28;20384;-54